Airfield :
LOGIN :

Register | Disclaimer

   EN    FR    IT 

 










Legend :    VFR   Marginal VFR   IFR   Intensive IFR   Very Intensive IFR
Visi :
Ceiling :
>= 8 km
>= 3000ft
5 to 8 km
1000 to 3000 ft
1500m to 5 km
500 to 1000 ft
800 to 1500m
200 to 500 ft
< 800m
< 200 ft
Symbols :   Thunderstorms  Fog  Heavy snow  Heavy precipitations  Wind > 20 kt
SIGMETs :     Misc.  Thunderstorms  Icing  Turbulence  Mountain Waves  Volcanic Ashes






- Airport Elevation : 76 ft
- IATA code : KID


ESMK - Kristianstad

CURRENT METAR :
  • 211550Z 25010KT 9999 BKN043 07/02 Q1013

EXPIRED METARs :
  • 211520Z 23012KT 9999 FEW032 SCT046 07/02 Q1012
  • 211450Z 25010KT 9999 SCT034 BKN048 07/02 Q1012
  • 211420Z 25013KT 220V280 9999 SCT033 BKN051 08/02 Q1012
  • 211350Z 25011KT 220V290 9999 SCT033 BKN051 08/02 Q1012
  • 211320Z 26012KT 9999 SCT040 SCT051 08/01 Q1012

TAF TAF ESMK
Valid from the 21 at 15:00 until the 21 at 20:00 UTC


211411Z 2115/2120 26012KT 9999 BKN020
TEMPO 2115/2120 24015G28KT
BECMG 2118/2120 BKN012



MET'MAP, your aeronautical weather chart ! - Copyright ORBIFLY December 2007 - Disclaimer

ORBIFLY MET'MAP TEAM :

Programming & Development : Alexandra Zaïnal
Concept & original design : Baudouin d'Aumeries
Assistance for programming : Marc-Olivier Méhu
Technical & hardware support : Manuel Goepfert

Contact : metmap@orbifly.com




SOURCES & CREDITS :

   NOAA